createdAt,value
2023-05-17T00:00:29.049Z,5.70
2023-05-17T00:02:55.844Z,5.70
2023-05-17T00:05:22.743Z,5.70
2023-05-17T00:07:49.672Z,5.70
2023-05-17T00:10:16.459Z,5.70
2023-05-17T00:12:43.347Z,5.70
2023-05-17T00:15:10.884Z,5.80
2023-05-17T00:17:38.194Z,5.70
2023-05-17T00:20:06.047Z,5.70
2023-05-17T00:22:32.902Z,5.80
2023-05-17T00:24:59.771Z,5.70
2023-05-17T00:27:26.559Z,5.70
2023-05-17T00:29:53.380Z,5.70
2023-05-17T00:32:20.251Z,5.70
2023-05-17T00:34:47.045Z,5.80
2023-05-17T00:37:13.780Z,5.80
2023-05-17T00:39:40.897Z,5.80
2023-05-17T00:42:07.717Z,5.80
2023-05-17T00:44:34.466Z,5.80
2023-05-17T00:47:01.787Z,5.80
2023-05-17T00:49:28.733Z,5.80
2023-05-17T00:51:55.865Z,5.90
2023-05-17T00:54:22.961Z,5.90
2023-05-17T00:56:50.104Z,5.80
2023-05-17T00:59:17.849Z,5.80
2023-05-17T01:01:44.947Z,5.80
2023-05-17T01:04:11.882Z,5.70
2023-05-17T01:06:39.088Z,5.70
2023-05-17T01:09:07.432Z,5.70
2023-05-17T01:11:53.339Z,5.70
2023-05-17T01:14:53.766Z,5.70
2023-05-17T01:17:36.011Z,5.60
2023-05-17T01:20:26.937Z,5.60
2023-05-17T01:23:36.310Z,5.60
2023-05-17T01:26:17.614Z,5.70
2023-05-17T01:28:46.748Z,5.70
2023-05-17T01:31:14.378Z,5.60
2023-05-17T01:33:41.489Z,5.70
2023-05-17T01:36:08.792Z,5.70
2023-05-17T01:38:35.747Z,5.70
2023-05-17T01:41:18.422Z,5.70
2023-05-17T01:44:10.676Z,5.70
2023-05-17T01:46:37.427Z,5.70
2023-05-17T01:49:29.887Z,5.70
2023-05-17T01:52:18.585Z,5.70
2023-05-17T01:54:56.211Z,5.80
2023-05-17T01:57:29.566Z,5.80
2023-05-17T02:00:01.169Z,5.80
2023-05-17T02:02:28.468Z,5.80
2023-05-17T02:04:55.322Z,5.80
2023-05-17T02:07:22.153Z,5.80
2023-05-17T02:09:48.948Z,5.80
2023-05-17T02:12:16.013Z,5.80
2023-05-17T02:14:42.810Z,5.80
2023-05-17T02:17:09.902Z,5.80
2023-05-17T02:19:36.850Z,5.70
2023-05-17T02:22:03.723Z,5.70
2023-05-17T02:24:30.524Z,5.70
2023-05-17T02:26:57.276Z,5.60
2023-05-17T02:29:24.087Z,5.50
2023-05-17T02:31:50.910Z,5.40
2023-05-17T02:34:17.734Z,5.40
2023-05-17T02:36:44.590Z,5.40
2023-05-17T02:39:11.353Z,5.30
2023-05-17T02:41:38.170Z,5.30
2023-05-17T02:44:05.461Z,5.30
2023-05-17T02:46:32.272Z,5.30
2023-05-17T02:48:59.060Z,5.30
2023-05-17T02:51:25.836Z,5.40
2023-05-17T02:53:52.610Z,5.40
2023-05-17T02:56:19.393Z,5.40
2023-05-17T02:58:46.250Z,5.30
2023-05-17T03:01:13.072Z,5.30
2023-05-17T03:03:40.052Z,5.20
2023-05-17T03:06:07.185Z,5.20
2023-05-17T03:08:33.999Z,5.20
2023-05-17T03:11:00.827Z,5.20
2023-05-17T03:13:27.592Z,5.20
2023-05-17T03:15:54.306Z,5.10
2023-05-17T03:18:21.181Z,5.10
2023-05-17T03:20:48.020Z,5.00
2023-05-17T03:23:14.824Z,5.10
2023-05-17T03:25:41.600Z,5.10
2023-05-17T03:28:08.383Z,5.10
2023-05-17T03:30:35.431Z,5.00
2023-05-17T03:33:02.333Z,5.00
2023-05-17T03:35:29.269Z,4.90
2023-05-17T03:37:56.182Z,4.90
2023-05-17T03:40:23.110Z,4.90
2023-05-17T03:42:50.888Z,4.80
2023-05-17T03:45:17.712Z,4.80
2023-05-17T03:47:44.494Z,4.80
2023-05-17T03:50:11.433Z,4.70
2023-05-17T03:52:38.420Z,4.60
2023-05-17T03:55:05.949Z,4.50
2023-05-17T03:57:32.739Z,4.50
2023-05-17T03:59:59.494Z,4.50
2023-05-17T04:02:26.494Z,4.50
2023-05-17T04:04:53.505Z,4.50
2023-05-17T04:07:20.526Z,4.50
2023-05-17T04:09:47.512Z,4.50
2023-05-17T04:12:14.372Z,4.50
2023-05-17T04:14:41.392Z,4.50
2023-05-17T04:17:08.173Z,4.50
2023-05-17T04:19:35.203Z,4.40
2023-05-17T04:22:02.178Z,4.50
2023-05-17T04:24:28.963Z,4.50
2023-05-17T04:26:55.738Z,4.50
2023-05-17T04:29:22.519Z,4.50
2023-05-17T04:31:50.146Z,4.40
2023-05-17T04:34:22.282Z,4.50
2023-05-17T04:36:49.131Z,4.40
2023-05-17T04:39:15.891Z,4.40
2023-05-17T04:41:42.652Z,4.50
2023-05-17T04:44:09.424Z,4.50
2023-05-17T04:46:36.467Z,4.60
2023-05-17T04:49:03.555Z,4.50
2023-05-17T04:51:30.926Z,4.50
2023-05-17T04:54:01.012Z,4.50
2023-05-17T04:56:28.915Z,4.60
2023-05-17T04:58:55.700Z,4.60
2023-05-17T05:01:22.565Z,4.70
2023-05-17T05:03:49.568Z,4.80
2023-05-17T05:06:16.435Z,4.90
2023-05-17T05:08:43.260Z,4.90
2023-05-17T05:11:10.001Z,5.00
2023-05-17T05:13:38.938Z,5.10
2023-05-17T05:16:06.474Z,5.10
2023-05-17T05:18:33.673Z,5.20
2023-05-17T05:21:00.986Z,5.30
2023-05-17T05:23:27.764Z,5.40
2023-05-17T05:25:54.519Z,5.50
2023-05-17T05:28:21.256Z,5.60
2023-05-17T05:30:48.008Z,5.70
2023-05-17T05:33:14.971Z,5.90
2023-05-17T05:35:41.859Z,6.00
2023-05-17T05:38:08.633Z,6.20
2023-05-17T05:40:35.486Z,6.30
2023-05-17T05:43:02.271Z,6.40
2023-05-17T05:45:29.165Z,6.50
2023-05-17T05:47:56.061Z,6.60
2023-05-17T05:50:22.915Z,6.70
2023-05-17T05:52:49.704Z,6.80
2023-05-17T05:55:16.557Z,7.00
2023-05-17T05:57:43.358Z,7.10
2023-05-17T06:00:12.756Z,7.30
2023-05-17T06:02:39.866Z,7.40
2023-05-17T06:05:07.091Z,7.50
2023-05-17T06:07:34.002Z,7.60
2023-05-17T06:10:00.727Z,7.80
2023-05-17T06:12:27.532Z,7.90
2023-05-17T06:14:54.280Z,8.10
2023-05-17T06:17:21.555Z,8.10
2023-05-17T06:19:49.365Z,8.20
2023-05-17T06:22:16.334Z,8.30
2023-05-17T06:24:43.112Z,8.30
2023-05-17T06:27:09.898Z,8.30
2023-05-17T06:29:39.837Z,8.50
2023-05-17T06:32:06.964Z,8.90
2023-05-17T06:34:33.774Z,9.10
2023-05-17T06:37:00.635Z,9.30
2023-05-17T06:39:27.411Z,9.60
2023-05-17T06:41:54.209Z,9.60
2023-05-17T06:44:21.553Z,9.70
2023-05-17T06:46:48.350Z,10.00
2023-05-17T06:49:15.160Z,10.30
2023-05-17T06:51:42.057Z,10.40
2023-05-17T06:54:08.891Z,10.30
2023-05-17T06:56:35.777Z,10.60
2023-05-17T06:59:02.558Z,10.90
2023-05-17T07:01:29.371Z,10.70
2023-05-17T07:03:56.792Z,11.40
2023-05-17T07:06:23.698Z,11.30
2023-05-17T07:08:50.445Z,11.50
2023-05-17T07:11:17.207Z,10.90
2023-05-17T07:13:44.170Z,11.10
2023-05-17T07:16:11.100Z,11.00
2023-05-17T07:18:37.913Z,11.20
2023-05-17T07:21:04.881Z,11.50
2023-05-17T07:23:31.696Z,11.80
2023-05-17T07:26:00.786Z,12.10
2023-05-17T07:28:27.606Z,12.20
2023-05-17T07:30:54.361Z,12.60
2023-05-17T07:33:21.132Z,12.30
2023-05-17T07:35:47.929Z,12.70
2023-05-17T07:38:14.716Z,12.40
2023-05-17T07:40:41.559Z,12.90
2023-05-17T07:43:08.308Z,12.60
2023-05-17T07:45:35.046Z,12.90
2023-05-17T07:48:01.967Z,13.30
2023-05-17T07:50:29.467Z,13.50
2023-05-17T07:52:56.552Z,13.10
2023-05-17T07:55:23.376Z,13.10
2023-05-17T07:57:50.193Z,13.50
2023-05-17T08:00:21.530Z,13.70
2023-05-17T08:02:48.796Z,13.90
2023-05-17T08:05:15.826Z,13.90
2023-05-17T08:07:42.597Z,14.10
2023-05-17T08:10:09.903Z,14.00
2023-05-17T08:12:36.702Z,13.50
2023-05-17T08:15:03.758Z,13.20
2023-05-17T08:17:30.525Z,12.90
2023-05-17T08:19:57.392Z,12.60
2023-05-17T08:22:24.353Z,12.60
2023-05-17T08:24:51.413Z,13.00
2023-05-17T08:27:18.517Z,13.00
2023-05-17T08:29:45.364Z,13.20
2023-05-17T08:32:12.115Z,13.60
2023-05-17T08:34:38.926Z,14.00
2023-05-17T08:37:05.804Z,14.60
2023-05-17T08:39:32.737Z,15.00
2023-05-17T08:42:01.673Z,14.70
2023-05-17T08:44:28.770Z,14.10
2023-05-17T08:46:59.117Z,14.20
2023-05-17T08:51:59.239Z,15.20
2023-05-17T08:54:26.417Z,15.50
2023-05-17T08:57:00.211Z,14.50
2023-05-17T08:59:33.593Z,14.60
2023-05-17T09:02:01.228Z,14.10
2023-05-17T09:04:29.878Z,13.40
2023-05-17T09:06:56.801Z,13.10
2023-05-17T09:09:23.763Z,13.00
2023-05-17T09:11:51.083Z,13.40
2023-05-17T09:14:18.341Z,14.70
2023-05-17T09:16:45.299Z,14.90
2023-05-17T09:19:17.158Z,15.90
2023-05-17T09:21:47.917Z,16.20
2023-05-17T09:24:14.924Z,15.90
2023-05-17T09:26:46.104Z,15.40
2023-05-17T09:29:17.473Z,14.90
2023-05-17T09:31:44.891Z,15.20
2023-05-17T09:34:12.029Z,15.90
2023-05-17T09:36:43.424Z,16.90
2023-05-17T09:39:13.039Z,16.20
2023-05-17T09:41:47.905Z,15.90
2023-05-17T09:44:16.496Z,15.20
2023-05-17T09:46:47.934Z,14.80
2023-05-17T09:49:16.466Z,14.80
2023-05-17T09:51:46.681Z,15.10
2023-05-17T09:54:14.273Z,15.60
2023-05-17T09:56:41.385Z,16.20
2023-05-17T09:59:16.274Z,16.00
2023-05-17T10:01:45.297Z,15.70
2023-05-17T10:04:13.744Z,15.10
2023-05-17T10:09:14.103Z,14.10
2023-05-17T10:11:44.023Z,15.20
2023-05-17T10:14:19.114Z,15.40
2023-05-17T10:16:46.955Z,15.10
2023-05-17T10:19:14.925Z,14.90
2023-05-17T10:21:43.239Z,15.90
2023-05-17T10:24:11.396Z,15.20
2023-05-17T10:26:38.775Z,15.00
2023-05-17T10:29:06.127Z,15.60
2023-05-17T10:31:34.275Z,16.30
2023-05-17T10:34:02.293Z,15.90
2023-05-17T10:36:29.805Z,15.60
2023-05-17T10:38:57.065Z,15.40
2023-05-17T10:41:26.514Z,15.00
2023-05-17T10:43:54.427Z,14.70
2023-05-17T10:46:24.060Z,14.80
2023-05-17T10:48:52.152Z,15.50
2023-05-17T10:51:27.228Z,17.10
2023-05-17T10:54:03.200Z,17.80
2023-05-17T10:56:34.399Z,17.00
2023-05-17T10:59:24.073Z,16.20
2023-05-17T11:02:03.656Z,15.20
2023-05-17T11:04:42.147Z,14.80
2023-05-17T11:07:25.421Z,16.00
2023-05-17T11:09:55.630Z,16.60
2023-05-17T11:12:33.874Z,16.10
2023-05-17T11:15:05.192Z,15.40
2023-05-17T11:17:51.878Z,15.10
2023-05-17T11:20:27.877Z,16.50
2023-05-17T11:23:05.606Z,17.50
2023-05-17T11:25:37.424Z,17.40
2023-05-17T11:28:20.485Z,17.10
2023-05-17T11:30:53.768Z,16.00
2023-05-17T11:33:37.407Z,16.50
2023-05-17T11:36:06.940Z,17.70
2023-05-17T11:38:34.505Z,17.40
2023-05-17T11:41:26.378Z,17.10
2023-05-17T11:43:54.575Z,16.70
2023-05-17T11:46:23.823Z,16.10
2023-05-17T11:48:52.628Z,16.70
2023-05-17T11:51:21.365Z,17.60
2023-05-17T11:53:50.668Z,17.60
2023-05-17T11:56:19.341Z,17.30
2023-05-17T11:58:52.788Z,17.40
2023-05-17T12:01:19.793Z,16.50
2023-05-17T12:03:47.522Z,15.80
2023-05-17T12:06:17.528Z,15.90
2023-05-17T12:08:46.686Z,15.70
2023-05-17T12:11:16.850Z,15.90
2023-05-17T12:13:46.761Z,16.00
2023-05-17T12:16:17.553Z,17.10
2023-05-17T12:18:52.171Z,16.60
2023-05-17T12:21:21.141Z,16.10
2023-05-17T12:23:51.349Z,16.10
2023-05-17T12:26:21.492Z,16.00
2023-05-17T12:28:57.391Z,15.60
2023-05-17T12:31:39.380Z,16.60
2023-05-17T12:34:06.997Z,16.50
2023-05-17T12:36:34.170Z,16.50
2023-05-17T12:39:02.381Z,16.60
2023-05-17T12:41:30.728Z,16.10
2023-05-17T12:44:13.731Z,15.40
2023-05-17T12:46:42.877Z,15.50
2023-05-17T12:49:11.336Z,16.40
2023-05-17T12:51:43.354Z,15.70
2023-05-17T12:54:12.005Z,15.60
2023-05-17T12:56:45.692Z,15.60
2023-05-17T12:59:17.269Z,15.40
2023-05-17T13:01:52.498Z,15.40
2023-05-17T13:04:20.575Z,15.60
2023-05-17T13:06:56.304Z,15.90
2023-05-17T13:09:28.944Z,16.30
2023-05-17T13:11:57.584Z,16.50
2023-05-17T13:14:47.883Z,16.10
2023-05-17T13:17:20.821Z,16.20
2023-05-17T13:19:47.939Z,15.90
2023-05-17T13:22:15.884Z,15.20
2023-05-17T13:24:44.447Z,14.70
2023-05-17T13:27:11.917Z,14.70
2023-05-17T13:29:41.744Z,14.50
2023-05-17T13:32:10.310Z,14.40
2023-05-17T13:34:37.355Z,14.60
2023-05-17T13:37:05.622Z,14.80
2023-05-17T13:39:34.050Z,15.70
2023-05-17T13:42:00.890Z,16.30
2023-05-17T13:44:27.664Z,16.60
2023-05-17T13:46:54.501Z,17.10
2023-05-17T13:49:21.425Z,17.40
2023-05-17T13:51:48.323Z,16.80
2023-05-17T13:54:15.193Z,16.80
2023-05-17T13:56:42.027Z,16.50
2023-05-17T13:59:08.845Z,16.70
2023-05-17T14:01:35.656Z,16.70
2023-05-17T14:04:02.497Z,16.40
2023-05-17T14:06:29.484Z,16.10
2023-05-17T14:08:57.668Z,16.10
2023-05-17T14:11:24.531Z,15.50
2023-05-17T14:13:51.864Z,15.30
2023-05-17T14:16:18.676Z,14.80
2023-05-17T14:18:46.381Z,14.80
2023-05-17T14:21:13.332Z,14.60
2023-05-17T14:23:40.153Z,14.80
2023-05-17T14:26:07.372Z,14.50
2023-05-17T14:28:37.842Z,14.40
2023-05-17T14:31:07.862Z,14.40
2023-05-17T14:33:35.436Z,14.00
2023-05-17T14:36:03.890Z,13.70
2023-05-17T14:38:31.168Z,13.70
2023-05-17T14:41:00.502Z,13.80
2023-05-17T14:43:27.489Z,13.80
2023-05-17T14:45:54.236Z,13.40
2023-05-17T14:48:21.149Z,13.40
2023-05-17T14:50:47.976Z,13.40
2023-05-17T14:53:14.801Z,13.40
2023-05-17T14:55:42.417Z,13.60
2023-05-17T14:58:09.240Z,13.40
2023-05-17T15:00:36.118Z,13.00
2023-05-17T15:03:03.204Z,12.90
2023-05-17T15:05:30.362Z,12.90
2023-05-17T15:07:57.728Z,13.10
2023-05-17T15:10:24.567Z,13.20
2023-05-17T15:12:52.409Z,13.10
2023-05-17T15:15:22.217Z,13.10
2023-05-17T15:17:49.138Z,13.10
2023-05-17T15:20:16.100Z,12.90
2023-05-17T15:22:42.874Z,12.80
2023-05-17T15:25:09.716Z,12.70
2023-05-17T15:27:36.479Z,12.70
2023-05-17T15:30:03.407Z,12.80
2023-05-17T15:32:30.234Z,13.00
2023-05-17T15:34:59.148Z,12.90
2023-05-17T15:37:25.966Z,12.80
2023-05-17T15:39:52.758Z,12.80
2023-05-17T15:42:19.504Z,12.30
2023-05-17T15:44:46.324Z,12.40
2023-05-17T15:47:13.268Z,12.40
2023-05-17T15:49:40.856Z,12.40
2023-05-17T15:52:07.823Z,12.60
2023-05-17T15:54:34.670Z,12.70
2023-05-17T15:57:01.473Z,12.50
2023-05-17T15:59:28.277Z,12.30
2023-05-17T16:01:55.051Z,12.20
2023-05-17T16:04:22.012Z,12.30
2023-05-17T16:06:48.954Z,12.20
2023-05-17T16:09:15.911Z,12.20
2023-05-17T16:11:42.799Z,12.40
2023-05-17T16:14:10.240Z,12.30
2023-05-17T16:16:37.121Z,12.10
2023-05-17T16:19:04.761Z,12.20
2023-05-17T16:21:32.461Z,12.50
2023-05-17T16:23:59.275Z,12.40
2023-05-17T16:26:26.549Z,12.20
2023-05-17T16:28:53.589Z,12.30
2023-05-17T16:31:20.572Z,12.30
2023-05-17T16:33:47.555Z,12.20
2023-05-17T16:36:14.361Z,12.00
2023-05-17T16:38:41.221Z,12.00
2023-05-17T16:41:08.119Z,12.20
2023-05-17T16:43:35.042Z,12.10
2023-05-17T16:46:02.172Z,12.00
2023-05-17T16:48:29.043Z,11.90
2023-05-17T16:50:56.212Z,11.80
2023-05-17T16:53:23.129Z,11.70
2023-05-17T16:55:49.953Z,11.60
2023-05-17T16:58:16.828Z,11.50
2023-05-17T17:00:43.640Z,11.60
2023-05-17T17:03:11.672Z,11.60
2023-05-17T17:05:38.564Z,11.50
2023-05-17T17:08:05.358Z,11.50
2023-05-17T17:10:32.309Z,11.40
2023-05-17T17:12:59.164Z,11.30
2023-05-17T17:15:26.048Z,11.10
2023-05-17T17:17:52.865Z,11.20
2023-05-17T17:20:19.832Z,11.10
2023-05-17T17:22:46.882Z,11.00
2023-05-17T17:25:13.730Z,11.00
2023-05-17T17:27:40.723Z,10.90
2023-05-17T17:30:08.106Z,10.80
2023-05-17T17:32:35.086Z,10.70
2023-05-17T17:35:02.035Z,10.60
2023-05-17T17:37:28.908Z,10.60
2023-05-17T17:39:55.928Z,10.50
2023-05-17T17:42:22.721Z,10.60
2023-05-17T17:44:49.509Z,10.50
2023-05-17T17:47:16.385Z,10.30
2023-05-17T17:49:43.238Z,10.20
2023-05-17T17:52:10.020Z,10.20
2023-05-17T17:54:36.843Z,10.20
2023-05-17T17:57:03.879Z,10.10
2023-05-17T17:59:30.762Z,10.00
2023-05-17T18:01:59.532Z,10.10
2023-05-17T18:04:26.944Z,10.00
2023-05-17T18:06:54.831Z,9.90
2023-05-17T18:09:22.698Z,9.90
2023-05-17T18:11:49.603Z,9.80
2023-05-17T18:14:16.472Z,9.80
2023-05-17T18:16:43.345Z,9.70
2023-05-17T18:19:10.253Z,9.60
2023-05-17T18:21:37.236Z,9.40
2023-05-17T18:24:04.196Z,9.40
2023-05-17T18:26:31.018Z,9.40
2023-05-17T18:28:57.759Z,9.30
2023-05-17T18:31:24.603Z,9.20
2023-05-17T18:33:51.404Z,9.10
2023-05-17T18:36:18.376Z,9.00
2023-05-17T18:38:45.163Z,8.90
2023-05-17T18:41:11.962Z,8.80
2023-05-17T18:43:38.759Z,8.70
2023-05-17T18:46:05.535Z,8.60
2023-05-17T18:48:36.151Z,8.40
2023-05-17T18:51:03.365Z,8.30
2023-05-17T18:53:30.365Z,8.20
2023-05-17T18:56:01.395Z,8.10
2023-05-17T18:58:29.061Z,7.90
2023-05-17T19:00:56.248Z,7.80
2023-05-17T19:03:23.100Z,7.70
2023-05-17T19:05:49.942Z,7.60
2023-05-17T19:08:16.703Z,7.50
2023-05-17T19:10:43.604Z,7.40
2023-05-17T19:13:11.175Z,7.30
2023-05-17T19:15:38.131Z,7.30
2023-05-17T19:18:04.958Z,7.20
2023-05-17T19:20:33.396Z,7.20
2023-05-17T19:23:05.990Z,7.10
2023-05-17T19:25:32.805Z,7.10
2023-05-17T19:27:59.798Z,7.00
2023-05-17T19:30:26.716Z,7.00
2023-05-17T19:32:53.686Z,7.00
2023-05-17T19:35:20.630Z,6.90
2023-05-17T19:37:47.476Z,6.70
2023-05-17T19:40:15.091Z,6.60
2023-05-17T19:42:41.897Z,6.60
2023-05-17T19:45:12.558Z,6.50
2023-05-17T19:47:39.524Z,6.40
2023-05-17T19:50:06.972Z,6.30
2023-05-17T19:52:33.836Z,6.20
2023-05-17T19:55:00.749Z,6.20
2023-05-17T19:57:28.592Z,6.10
2023-05-17T19:59:55.434Z,6.10
2023-05-17T20:02:22.278Z,5.90
2023-05-17T20:04:49.337Z,5.80
2023-05-17T20:07:17.454Z,5.70
2023-05-17T20:09:44.243Z,5.70
2023-05-17T20:12:11.032Z,5.60
2023-05-17T20:14:38.203Z,5.50
2023-05-17T20:17:05.055Z,5.40
2023-05-17T20:19:32.013Z,5.40
2023-05-17T20:21:58.966Z,5.40
2023-05-17T20:24:28.924Z,5.30
2023-05-17T20:26:57.293Z,5.30
2023-05-17T20:29:24.081Z,5.20
2023-05-17T20:31:51.234Z,5.20
2023-05-17T20:34:18.205Z,5.10
2023-05-17T20:36:45.283Z,5.10
2023-05-17T20:39:12.655Z,5.00
2023-05-17T20:41:39.514Z,5.00
2023-05-17T20:44:06.347Z,4.90
2023-05-17T20:46:33.412Z,4.80
2023-05-17T20:49:01.061Z,4.80
2023-05-17T20:51:27.866Z,4.80
2023-05-17T20:53:54.659Z,4.70
2023-05-17T20:56:21.614Z,4.70
2023-05-17T20:58:49.037Z,4.60
2023-05-17T21:01:15.895Z,4.50
2023-05-17T21:03:43.837Z,4.50
2023-05-17T21:06:10.992Z,4.50
2023-05-17T21:08:38.447Z,4.50
2023-05-17T21:11:05.606Z,4.50
2023-05-17T21:13:32.437Z,4.40
2023-05-17T21:15:59.257Z,4.30
2023-05-17T21:18:26.388Z,4.30
2023-05-17T21:20:54.958Z,4.20
2023-05-17T21:23:21.776Z,4.20
2023-05-17T21:25:49.122Z,4.10
2023-05-17T21:28:15.992Z,4.10
2023-05-17T21:30:42.815Z,4.10
2023-05-17T21:33:09.696Z,4.00
2023-05-17T21:35:36.574Z,3.90
2023-05-17T21:38:03.368Z,3.90
2023-05-17T21:40:30.373Z,3.90
2023-05-17T21:42:57.334Z,3.80
2023-05-17T21:45:24.247Z,3.80
2023-05-17T21:47:51.048Z,3.80
2023-05-17T21:50:17.947Z,3.80
2023-05-17T21:52:44.774Z,3.70
2023-05-17T21:55:11.610Z,3.70
2023-05-17T21:57:38.395Z,3.60
2023-05-17T22:00:07.958Z,3.50
2023-05-17T22:02:36.075Z,3.50
2023-05-17T22:05:03.233Z,3.40
2023-05-17T22:07:30.053Z,3.40
2023-05-17T22:09:58.247Z,3.40
2023-05-17T22:12:26.194Z,3.40
2023-05-17T22:14:54.198Z,3.30
2023-05-17T22:17:29.640Z,3.30
2023-05-17T22:20:02.944Z,3.30
2023-05-17T22:22:32.183Z,3.20
2023-05-17T22:24:58.942Z,3.10
2023-05-17T22:27:25.917Z,3.10
2023-05-17T22:29:52.785Z,3.00
2023-05-17T22:32:19.578Z,3.00
2023-05-17T22:34:46.367Z,2.90
2023-05-17T22:37:13.171Z,2.80
2023-05-17T22:39:41.103Z,2.80
2023-05-17T22:42:08.776Z,2.70
2023-05-17T22:44:36.982Z,2.70
2023-05-17T22:47:04.904Z,2.60
2023-05-17T22:49:35.930Z,2.60
2023-05-17T22:52:07.685Z,2.50
2023-05-17T22:54:36.277Z,2.60
2023-05-17T22:57:04.313Z,2.50
2023-05-17T22:59:32.888Z,2.50
2023-05-17T23:02:00.033Z,2.50
2023-05-17T23:04:27.322Z,2.40
2023-05-17T23:06:54.526Z,2.40
2023-05-17T23:09:21.936Z,2.30
2023-05-17T23:11:49.996Z,2.30
2023-05-17T23:14:17.505Z,2.20
2023-05-17T23:16:44.442Z,2.20
2023-05-17T23:19:13.307Z,2.20
2023-05-17T23:21:40.263Z,2.20
2023-05-17T23:24:08.135Z,2.10
2023-05-17T23:26:35.409Z,2.10
2023-05-17T23:29:03.345Z,2.00
2023-05-17T23:31:30.261Z,2.00
2023-05-17T23:33:57.214Z,2.00
2023-05-17T23:36:24.004Z,2.00
2023-05-17T23:38:50.838Z,2.00
2023-05-17T23:41:19.609Z,2.00
2023-05-17T23:43:46.924Z,2.00
2023-05-17T23:46:13.827Z,1.90
2023-05-17T23:48:40.708Z,1.90
2023-05-17T23:51:07.538Z,1.80
2023-05-17T23:53:34.488Z,1.80
2023-05-17T23:56:01.576Z,1.80
2023-05-17T23:58:28.327Z,1.80
